createdAt,value
2024-05-09T00:03:19.646Z,14
2024-05-09T00:08:32.058Z,15
2024-05-09T00:13:44.551Z,17
2024-05-09T00:18:57.103Z,19
2024-05-09T00:24:09.727Z,20
2024-05-09T00:29:22.222Z,22
2024-05-09T00:34:34.626Z,22
2024-05-09T00:39:47.137Z,17
2024-05-09T00:44:59.654Z,20
2024-05-09T00:50:12.196Z,24
2024-05-09T00:55:24.846Z,23
2024-05-09T01:00:37.278Z,23
2024-05-09T01:05:49.977Z,18
2024-05-09T01:11:02.597Z,22
2024-05-09T01:16:15.053Z,21
2024-05-09T01:21:27.527Z,18
2024-05-09T01:26:40.007Z,17
2024-05-09T01:31:52.440Z,21
2024-05-09T01:37:04.770Z,22
2024-05-09T01:42:17.221Z,19
2024-05-09T01:47:29.527Z,26
2024-05-09T01:52:42.062Z,18
2024-05-09T01:57:53.428Z,20
2024-05-09T02:03:05.982Z,11
2024-05-09T02:08:18.407Z,9
2024-05-09T02:13:30.900Z,12
2024-05-09T02:18:43.301Z,17
2024-05-09T02:23:55.926Z,15
2024-05-09T02:29:08.239Z,17
2024-05-09T02:34:20.709Z,18
2024-05-09T02:39:33.327Z,16
2024-05-09T02:44:45.741Z,16
2024-05-09T02:49:58.248Z,22
2024-05-09T02:55:10.683Z,23
2024-05-09T03:00:23.150Z,22
2024-05-09T03:05:35.562Z,27
2024-05-09T03:10:48.055Z,19
2024-05-09T03:16:00.501Z,25
2024-05-09T03:21:13.031Z,19
2024-05-09T03:26:25.351Z,16
2024-05-09T03:31:37.838Z,20
2024-05-09T03:36:50.325Z,19
2024-05-09T03:42:02.935Z,15
2024-05-09T03:47:15.437Z,19
2024-05-09T03:52:28.015Z,24
2024-05-09T03:57:40.578Z,25
2024-05-09T04:02:53.053Z,19
2024-05-09T04:08:05.543Z,18
2024-05-09T04:13:18.020Z,18
2024-05-09T04:18:30.545Z,17
2024-05-09T04:23:43.037Z,17
2024-05-09T04:28:55.665Z,21
2024-05-09T04:34:08.265Z,21
2024-05-09T04:39:20.697Z,17
2024-05-09T04:44:33.017Z,13
2024-05-09T04:54:56.877Z,18
2024-05-09T05:00:09.438Z,22
2024-05-09T05:05:28.057Z,16
2024-05-09T05:10:40.604Z,24
2024-05-09T05:15:53.144Z,25
2024-05-09T05:21:05.694Z,32
2024-05-09T05:26:18.272Z,21
2024-05-09T05:31:30.835Z,21
2024-05-09T05:36:43.587Z,24
2024-05-09T05:41:56.174Z,20
2024-05-09T05:47:08.781Z,23
2024-05-09T05:52:21.412Z,17
2024-05-09T05:57:33.966Z,18
2024-05-09T06:02:46.514Z,12
2024-05-09T06:07:59.006Z,16
2024-05-09T06:13:11.593Z,15
2024-05-09T06:18:24.182Z,21
2024-05-09T06:23:36.778Z,15
2024-05-09T06:28:49.201Z,22
2024-05-09T06:34:01.815Z,22
2024-05-09T06:39:14.137Z,28
2024-05-09T06:44:26.886Z,26
2024-05-09T06:49:39.429Z,21
2024-05-09T06:54:52.083Z,23
2024-05-09T07:00:04.643Z,23
2024-05-09T07:05:17.286Z,26
2024-05-09T07:10:29.931Z,17
2024-05-09T07:15:42.525Z,25
2024-05-09T07:20:55.103Z,21
2024-05-09T07:26:07.676Z,25
2024-05-09T07:31:20.310Z,25
2024-05-09T07:36:32.852Z,27
2024-05-09T07:41:45.495Z,30
2024-05-09T07:46:58.079Z,33
2024-05-09T07:52:09.502Z,34
2024-05-09T07:57:22.125Z,28
2024-05-09T08:02:34.537Z,36
2024-05-09T08:07:47.166Z,35
2024-05-09T08:12:59.711Z,29
2024-05-09T08:18:12.330Z,41
2024-05-09T08:23:24.830Z,41
2024-05-09T08:28:37.470Z,48
2024-05-09T08:33:50.017Z,38
2024-05-09T08:39:02.564Z,47
2024-05-09T08:44:15.040Z,47
2024-05-09T08:49:27.732Z,54
2024-05-09T08:54:40.262Z,61
2024-05-09T08:59:52.771Z,54
2024-05-09T09:05:05.363Z,49
2024-05-09T09:10:17.876Z,57
2024-05-09T09:15:30.431Z,68
2024-05-09T09:20:42.942Z,63
2024-05-09T09:25:55.540Z,52
2024-05-09T09:31:08.256Z,56
2024-05-09T09:36:20.797Z,56
2024-05-09T09:41:33.315Z,51
2024-05-09T09:46:45.720Z,54
2024-05-09T09:51:58.373Z,57
2024-05-09T09:57:11.143Z,51
2024-05-09T10:02:23.825Z,50
2024-05-09T10:07:36.542Z,59
2024-05-09T10:12:48.947Z,81
2024-05-09T10:18:01.393Z,78
2024-05-09T10:23:14.053Z,78
2024-05-09T10:28:26.586Z,71
2024-05-09T10:33:39.115Z,62
2024-05-09T10:38:50.767Z,58
2024-05-09T10:44:03.118Z,74
2024-05-09T10:49:15.585Z,62
2024-05-09T10:54:28.064Z,58
2024-05-09T10:59:40.549Z,80
2024-05-09T11:04:53.288Z,84
2024-05-09T11:10:05.801Z,90
2024-05-09T11:15:18.102Z,117
2024-05-09T11:20:30.528Z,99
2024-05-09T11:25:43.110Z,98
2024-05-09T11:30:55.997Z,118
2024-05-09T11:36:08.652Z,105
2024-05-09T11:41:21.367Z,87
2024-05-09T11:46:33.913Z,92
2024-05-09T11:51:46.482Z,107
2024-05-09T11:56:59.155Z,108
2024-05-09T12:02:11.735Z,103
2024-05-09T12:07:24.199Z,97
2024-05-09T12:12:36.878Z,100
2024-05-09T12:17:49.454Z,116
2024-05-09T12:23:02.097Z,131
2024-05-09T12:28:14.644Z,125
2024-05-09T12:33:27.294Z,126
2024-05-09T12:38:39.866Z,122
2024-05-09T12:43:52.589Z,131
2024-05-09T12:49:05.117Z,155
2024-05-09T12:54:17.632Z,144
2024-05-09T12:59:30.480Z,170
2024-05-09T13:04:43.038Z,157
2024-05-09T13:09:55.693Z,163
2024-05-09T13:15:08.291Z,177
2024-05-09T13:20:20.957Z,176
2024-05-09T13:25:33.482Z,189
2024-05-09T13:30:45.045Z,231
2024-05-09T13:35:57.882Z,215
2024-05-09T13:41:10.361Z,203
2024-05-09T13:46:29.000Z,208
2024-05-09T13:51:41.353Z,176
2024-05-09T13:56:54.022Z,194
2024-05-09T14:02:06.537Z,212
2024-05-09T14:07:19.182Z,188
2024-05-09T14:12:31.780Z,192
2024-05-09T14:22:57.056Z,159
2024-05-09T14:28:09.539Z,169
2024-05-09T14:33:22.118Z,178
2024-05-09T14:38:34.666Z,163
2024-05-09T14:43:47.334Z,161
2024-05-09T14:48:59.719Z,163
2024-05-09T14:54:12.185Z,160
2024-05-09T14:59:24.784Z,162
2024-05-09T15:04:37.070Z,156
2024-05-09T15:09:49.661Z,165
2024-05-09T15:15:02.197Z,144
2024-05-09T15:20:14.707Z,167
2024-05-09T15:25:26.982Z,162
2024-05-09T15:30:39.189Z,160
2024-05-09T15:35:51.560Z,148
2024-05-09T15:41:03.989Z,153
2024-05-09T15:46:16.382Z,158
2024-05-09T15:51:28.734Z,164
2024-05-09T15:56:41.263Z,164
2024-05-09T16:01:53.977Z,173
2024-05-09T16:07:06.844Z,196
2024-05-09T16:12:19.493Z,177
2024-05-09T16:17:32.180Z,163
2024-05-09T16:22:44.795Z,165
2024-05-09T16:27:57.144Z,146
2024-05-09T16:33:08.452Z,174
2024-05-09T16:38:20.800Z,145
2024-05-09T16:43:33.134Z,167
2024-05-09T16:48:45.636Z,152
2024-05-09T16:53:58.138Z,160
2024-05-09T16:59:10.748Z,171
2024-05-09T17:04:23.083Z,159
2024-05-09T17:09:35.656Z,134
2024-05-09T17:14:48.130Z,133
2024-05-09T17:20:00.515Z,135
2024-05-09T17:25:12.822Z,146
2024-05-09T17:30:25.377Z,152
2024-05-09T17:35:37.866Z,143
2024-05-09T17:40:50.335Z,141
2024-05-09T17:46:02.896Z,143
2024-05-09T17:51:15.292Z,140
2024-05-09T17:56:27.745Z,144
2024-05-09T18:01:40.223Z,138
2024-05-09T18:06:52.762Z,137
2024-05-09T18:12:05.205Z,152
2024-05-09T18:17:17.810Z,137
2024-05-09T18:22:30.309Z,130
2024-05-09T18:27:42.680Z,120
2024-05-09T18:32:55.265Z,131
2024-05-09T18:38:07.609Z,110
2024-05-09T18:43:20.009Z,117
2024-05-09T18:48:32.330Z,107
2024-05-09T18:53:44.718Z,96
2024-05-09T18:58:57.268Z,89
2024-05-09T19:04:09.730Z,71
2024-05-09T19:09:22.181Z,79
2024-05-09T19:14:34.662Z,73
2024-05-09T19:19:46.075Z,69
2024-05-09T19:24:58.411Z,69
2024-05-09T19:30:10.788Z,74
2024-05-09T19:35:23.261Z,50
2024-05-09T19:40:35.770Z,60
2024-05-09T19:45:48.334Z,57
2024-05-09T19:56:13.333Z,55
2024-05-09T20:01:25.733Z,39
2024-05-09T20:06:38.296Z,42
2024-05-09T20:11:50.741Z,36
2024-05-09T20:17:03.231Z,28
2024-05-09T20:22:15.766Z,21
2024-05-09T20:27:28.191Z,22
2024-05-09T20:32:40.740Z,20
2024-05-09T20:37:53.147Z,33
2024-05-09T20:43:05.664Z,26
2024-05-09T20:48:18.292Z,18
2024-05-09T20:53:30.637Z,14
2024-05-09T20:58:43.089Z,19
2024-05-09T21:03:55.425Z,17
2024-05-09T21:09:07.837Z,15
2024-05-09T21:14:20.308Z,13
2024-05-09T21:19:32.759Z,13
2024-05-09T21:24:45.406Z,13
2024-05-09T21:29:57.877Z,12
2024-05-09T21:35:10.404Z,16
2024-05-09T21:40:22.754Z,14
2024-05-09T21:45:35.202Z,11
2024-05-09T21:50:47.856Z,15
2024-05-09T21:56:00.220Z,16
2024-05-09T22:01:12.576Z,19
2024-05-09T22:06:25.000Z,22
2024-05-09T22:11:36.526Z,26
2024-05-09T22:16:48.917Z,14
2024-05-09T22:22:01.503Z,14
2024-05-09T22:27:20.028Z,13
2024-05-09T22:32:32.496Z,16
2024-05-09T22:37:44.978Z,21
2024-05-09T22:42:57.358Z,18
2024-05-09T22:48:09.878Z,17
2024-05-09T22:53:22.219Z,13
2024-05-09T22:58:34.782Z,13
2024-05-09T23:03:47.308Z,16
2024-05-09T23:08:59.795Z,11
2024-05-09T23:14:12.253Z,18
2024-05-09T23:19:24.817Z,16
2024-05-09T23:24:37.424Z,14
2024-05-09T23:29:49.907Z,14
2024-05-09T23:35:02.503Z,11
2024-05-09T23:40:14.983Z,11
2024-05-09T23:45:27.491Z,11
2024-05-09T23:50:40.022Z,12
2024-05-09T23:55:52.624Z,13
